sensor_id;sensor_type;location;lat;lon;timestamp;P1;durP1;ratioP1;P2;durP2;ratioP2
6292;SDS011;3179;54.350;10.102;2024-01-25T00:01:29;26.00;;;6.63;;
6292;SDS011;3179;54.350;10.102;2024-01-25T00:03:55;32.67;;;6.80;;
6292;SDS011;3179;54.350;10.102;2024-01-25T00:06:24;34.40;;;7.00;;
6292;SDS011;3179;54.350;10.102;2024-01-25T00:08:51;40.97;;;7.47;;
6292;SDS011;3179;54.350;10.102;2024-01-25T00:11:18;34.43;;;7.40;;
6292;SDS011;3179;54.350;10.102;2024-01-25T00:13:45;31.60;;;7.20;;
6292;SDS011;3179;54.350;10.102;2024-01-25T00:16:12;31.00;;;7.07;;
6292;SDS011;3179;54.350;10.102;2024-01-25T00:18:39;35.63;;;6.40;;
6292;SDS011;3179;54.350;10.102;2024-01-25T00:21:06;22.60;;;5.80;;
6292;SDS011;3179;54.350;10.102;2024-01-25T00:23:34;29.10;;;6.77;;
6292;SDS011;3179;54.350;10.102;2024-01-25T00:26:01;28.83;;;6.70;;
6292;SDS011;3179;54.350;10.102;2024-01-25T00:28:28;37.47;;;8.37;;
6292;SDS011;3179;54.350;10.102;2024-01-25T00:30:54;29.87;;;6.83;;
6292;SDS011;3179;54.350;10.102;2024-01-25T00:33:21;30.30;;;5.63;;
6292;SDS011;3179;54.350;10.102;2024-01-25T00:35:48;40.83;;;7.30;;
6292;SDS011;3179;54.350;10.102;2024-01-25T00:38:16;24.83;;;6.23;;
6292;SDS011;3179;54.350;10.102;2024-01-25T00:40:44;22.90;;;5.90;;
6292;SDS011;3179;54.350;10.102;2024-01-25T00:43:12;23.73;;;6.77;;
6292;SDS011;3179;54.350;10.102;2024-01-25T00:45:40;35.83;;;6.57;;
6292;SDS011;3179;54.350;10.102;2024-01-25T00:48:07;22.17;;;5.33;;
6292;SDS011;3179;54.350;10.102;2024-01-25T00:50:35;28.57;;;6.13;;
6292;SDS011;3179;54.350;10.102;2024-01-25T00:53:04;32.00;;;5.90;;
6292;SDS011;3179;54.350;10.102;2024-01-25T00:55:31;21.53;;;6.17;;
6292;SDS011;3179;54.350;10.102;2024-01-25T00:58:00;30.83;;;6.57;;
6292;SDS011;3179;54.350;10.102;2024-01-25T01:00:27;27.10;;;5.07;;
6292;SDS011;3179;54.350;10.102;2024-01-25T01:02:55;25.43;;;5.07;;
6292;SDS011;3179;54.350;10.102;2024-01-25T01:05:24;28.07;;;5.37;;
6292;SDS011;3179;54.350;10.102;2024-01-25T01:07:52;28.57;;;6.80;;
6292;SDS011;3179;54.350;10.102;2024-01-25T01:10:19;23.90;;;6.30;;
6292;SDS011;3179;54.350;10.102;2024-01-25T01:12:46;32.93;;;6.80;;
6292;SDS011;3179;54.350;10.102;2024-01-25T01:15:14;24.20;;;5.00;;
6292;SDS011;3179;54.350;10.102;2024-01-25T01:17:41;22.30;;;4.70;;
6292;SDS011;3179;54.350;10.102;2024-01-25T01:20:08;23.43;;;6.20;;
6292;SDS011;3179;54.350;10.102;2024-01-25T01:22:35;24.90;;;5.00;;
6292;SDS011;3179;54.350;10.102;2024-01-25T01:25:02;28.97;;;5.70;;
6292;SDS011;3179;54.350;10.102;2024-01-25T01:27:30;30.50;;;6.50;;
6292;SDS011;3179;54.350;10.102;2024-01-25T01:29:56;26.30;;;6.00;;
6292;SDS011;3179;54.350;10.102;2024-01-25T01:32:25;24.93;;;5.33;;
6292;SDS011;3179;54.350;10.102;2024-01-25T01:34:51;29.30;;;6.43;;
6292;SDS011;3179;54.350;10.102;2024-01-25T01:37:18;28.93;;;5.67;;
6292;SDS011;3179;54.350;10.102;2024-01-25T01:39:45;31.97;;;5.30;;
6292;SDS011;3179;54.350;10.102;2024-01-25T01:42:12;24.43;;;5.70;;
6292;SDS011;3179;54.350;10.102;2024-01-25T01:44:39;27.53;;;5.00;;
6292;SDS011;3179;54.350;10.102;2024-01-25T01:47:06;19.57;;;5.40;;
6292;SDS011;3179;54.350;10.102;2024-01-25T01:49:34;24.10;;;5.03;;
6292;SDS011;3179;54.350;10.102;2024-01-25T01:52:02;23.47;;;5.33;;
6292;SDS011;3179;54.350;10.102;2024-01-25T01:54:29;24.23;;;4.90;;
6292;SDS011;3179;54.350;10.102;2024-01-25T01:56:57;23.57;;;5.97;;
6292;SDS011;3179;54.350;10.102;2024-01-25T01:59:24;17.00;;;4.43;;
6292;SDS011;3179;54.350;10.102;2024-01-25T02:01:51;17.80;;;4.97;;
6292;SDS011;3179;54.350;10.102;2024-01-25T02:04:18;23.67;;;5.57;;
6292;SDS011;3179;54.350;10.102;2024-01-25T02:06:46;24.57;;;5.10;;
6292;SDS011;3179;54.350;10.102;2024-01-25T02:09:13;22.30;;;5.20;;
6292;SDS011;3179;54.350;10.102;2024-01-25T02:11:40;24.53;;;5.13;;
6292;SDS011;3179;54.350;10.102;2024-01-25T02:14:07;31.50;;;5.80;;
6292;SDS011;3179;54.350;10.102;2024-01-25T02:16:37;22.87;;;4.77;;
6292;SDS011;3179;54.350;10.102;2024-01-25T02:19:03;24.57;;;6.37;;
6292;SDS011;3179;54.350;10.102;2024-01-25T02:21:30;19.97;;;5.00;;
6292;SDS011;3179;54.350;10.102;2024-01-25T02:23:58;27.63;;;6.30;;
6292;SDS011;3179;54.350;10.102;2024-01-25T02:26:25;20.93;;;5.50;;
6292;SDS011;3179;54.350;10.102;2024-01-25T02:28:52;20.10;;;5.07;;
6292;SDS011;3179;54.350;10.102;2024-01-25T02:31:19;31.17;;;6.97;;
6292;SDS011;3179;54.350;10.102;2024-01-25T02:33:46;27.43;;;6.30;;
6292;SDS011;3179;54.350;10.102;2024-01-25T02:36:13;34.50;;;5.80;;
6292;SDS011;3179;54.350;10.102;2024-01-25T02:38:39;28.80;;;6.60;;
6292;SDS011;3179;54.350;10.102;2024-01-25T02:41:08;32.40;;;6.47;;
6292;SDS011;3179;54.350;10.102;2024-01-25T02:43:34;19.47;;;5.60;;
6292;SDS011;3179;54.350;10.102;2024-01-25T02:46:01;20.60;;;5.50;;
6292;SDS011;3179;54.350;10.102;2024-01-25T02:48:31;24.90;;;5.97;;
6292;SDS011;3179;54.350;10.102;2024-01-25T02:50:58;20.93;;;6.07;;
6292;SDS011;3179;54.350;10.102;2024-01-25T02:53:25;24.43;;;5.80;;
6292;SDS011;3179;54.350;10.102;2024-01-25T02:55:52;32.27;;;6.37;;
6292;SDS011;3179;54.350;10.102;2024-01-25T02:58:20;27.43;;;5.60;;
6292;SDS011;3179;54.350;10.102;2024-01-25T03:00:47;34.30;;;6.90;;
6292;SDS011;3179;54.350;10.102;2024-01-25T03:03:20;15.63;;;4.47;;
6292;SDS011;3179;54.350;10.102;2024-01-25T03:05:48;22.83;;;5.20;;
6292;SDS011;3179;54.350;10.102;2024-01-25T03:08:15;27.80;;;6.10;;
6292;SDS011;3179;54.350;10.102;2024-01-25T03:10:42;26.33;;;5.70;;
6292;SDS011;3179;54.350;10.102;2024-01-25T03:13:09;21.13;;;4.93;;
6292;SDS011;3179;54.350;10.102;2024-01-25T03:15:37;24.30;;;5.20;;
6292;SDS011;3179;54.350;10.102;2024-01-25T03:18:04;21.53;;;4.80;;
6292;SDS011;3179;54.350;10.102;2024-01-25T03:20:31;27.17;;;5.10;;
6292;SDS011;3179;54.350;10.102;2024-01-25T03:22:58;20.90;;;4.33;;
6292;SDS011;3179;54.350;10.102;2024-01-25T03:25:25;32.80;;;5.47;;
6292;SDS011;3179;54.350;10.102;2024-01-25T03:27:52;29.97;;;4.93;;
6292;SDS011;3179;54.350;10.102;2024-01-25T03:30:18;22.63;;;5.17;;
6292;SDS011;3179;54.350;10.102;2024-01-25T03:32:47;22.03;;;4.80;;
6292;SDS011;3179;54.350;10.102;2024-01-25T03:35:14;17.97;;;4.50;;
6292;SDS011;3179;54.350;10.102;2024-01-25T03:37:40;23.73;;;4.40;;
6292;SDS011;3179;54.350;10.102;2024-01-25T03:40:08;27.70;;;4.70;;
6292;SDS011;3179;54.350;10.102;2024-01-25T03:42:35;21.87;;;5.07;;
6292;SDS011;3179;54.350;10.102;2024-01-25T03:45:02;23.27;;;5.37;;
6292;SDS011;3179;54.350;10.102;2024-01-25T03:47:29;23.77;;;5.17;;
6292;SDS011;3179;54.350;10.102;2024-01-25T03:49:57;18.53;;;5.27;;
6292;SDS011;3179;54.350;10.102;2024-01-25T03:52:25;20.63;;;5.33;;
6292;SDS011;3179;54.350;10.102;2024-01-25T03:54:55;22.83;;;4.70;;
6292;SDS011;3179;54.350;10.102;2024-01-25T03:57:21;23.90;;;5.50;;
6292;SDS011;3179;54.350;10.102;2024-01-25T03:59:48;24.30;;;5.63;;
6292;SDS011;3179;54.350;10.102;2024-01-25T04:02:15;20.00;;;4.80;;
6292;SDS011;3179;54.350;10.102;2024-01-25T04:04:42;38.63;;;5.70;;
6292;SDS011;3179;54.350;10.102;2024-01-25T04:07:10;26.50;;;5.30;;
6292;SDS011;3179;54.350;10.102;2024-01-25T04:09:37;16.93;;;4.40;;
6292;SDS011;3179;54.350;10.102;2024-01-25T04:12:05;14.77;;;3.90;;
6292;SDS011;3179;54.350;10.102;2024-01-25T04:14:32;22.30;;;4.80;;
6292;SDS011;3179;54.350;10.102;2024-01-25T04:16:59;32.57;;;5.50;;
6292;SDS011;3179;54.350;10.102;2024-01-25T04:19:26;18.63;;;4.27;;
6292;SDS011;3179;54.350;10.102;2024-01-25T04:21:53;31.70;;;5.30;;
6292;SDS011;3179;54.350;10.102;2024-01-25T04:24:21;20.60;;;4.80;;
6292;SDS011;3179;54.350;10.102;2024-01-25T04:26:48;17.03;;;4.33;;
6292;SDS011;3179;54.350;10.102;2024-01-25T04:29:15;30.13;;;6.20;;
6292;SDS011;3179;54.350;10.102;2024-01-25T04:31:42;25.90;;;6.27;;
6292;SDS011;3179;54.350;10.102;2024-01-25T04:34:10;20.13;;;5.30;;
6292;SDS011;3179;54.350;10.102;2024-01-25T04:36:36;25.57;;;5.27;;
6292;SDS011;3179;54.350;10.102;2024-01-25T04:39:03;23.87;;;5.07;;
6292;SDS011;3179;54.350;10.102;2024-01-25T04:41:32;27.83;;;6.10;;
6292;SDS011;3179;54.350;10.102;2024-01-25T04:43:59;23.23;;;4.70;;
6292;SDS011;3179;54.350;10.102;2024-01-25T04:46:26;21.97;;;4.60;;
6292;SDS011;3179;54.350;10.102;2024-01-25T04:48:52;22.60;;;4.60;;
6292;SDS011;3179;54.350;10.102;2024-01-25T04:51:19;25.93;;;5.53;;
6292;SDS011;3179;54.350;10.102;2024-01-25T04:53:46;22.50;;;5.33;;
6292;SDS011;3179;54.350;10.102;2024-01-25T04:56:13;22.80;;;4.90;;
6292;SDS011;3179;54.350;10.102;2024-01-25T04:58:42;21.00;;;4.40;;
6292;SDS011;3179;54.350;10.102;2024-01-25T05:01:08;23.57;;;4.73;;
6292;SDS011;3179;54.350;10.102;2024-01-25T05:03:35;22.20;;;4.60;;
6292;SDS011;3179;54.350;10.102;2024-01-25T05:06:02;23.47;;;5.00;;
6292;SDS011;3179;54.350;10.102;2024-01-25T05:08:30;22.20;;;4.83;;
6292;SDS011;3179;54.350;10.102;2024-01-25T05:10:56;19.77;;;4.10;;
6292;SDS011;3179;54.350;10.102;2024-01-25T05:13:23;20.43;;;4.40;;
6292;SDS011;3179;54.350;10.102;2024-01-25T05:15:54;26.83;;;5.33;;
6292;SDS011;3179;54.350;10.102;2024-01-25T05:18:21;24.80;;;3.87;;
6292;SDS011;3179;54.350;10.102;2024-01-25T05:20:48;23.13;;;4.90;;
6292;SDS011;3179;54.350;10.102;2024-01-25T05:23:15;17.50;;;4.57;;
6292;SDS011;3179;54.350;10.102;2024-01-25T05:25:42;26.60;;;5.00;;
6292;SDS011;3179;54.350;10.102;2024-01-25T05:28:09;18.87;;;4.50;;
6292;SDS011;3179;54.350;10.102;2024-01-25T05:30:35;20.73;;;5.00;;
6292;SDS011;3179;54.350;10.102;2024-01-25T05:33:04;15.37;;;4.50;;
6292;SDS011;3179;54.350;10.102;2024-01-25T05:35:31;21.70;;;4.50;;
6292;SDS011;3179;54.350;10.102;2024-01-25T05:37:59;19.67;;;4.70;;
6292;SDS011;3179;54.350;10.102;2024-01-25T05:40:26;23.27;;;5.83;;
6292;SDS011;3179;54.350;10.102;2024-01-25T05:42:54;18.70;;;4.70;;
6292;SDS011;3179;54.350;10.102;2024-01-25T05:45:21;24.33;;;4.67;;
6292;SDS011;3179;54.350;10.102;2024-01-25T05:47:49;22.47;;;4.63;;
6292;SDS011;3179;54.350;10.102;2024-01-25T05:50:18;19.80;;;4.67;;
6292;SDS011;3179;54.350;10.102;2024-01-25T05:52:44;18.03;;;4.30;;
6292;SDS011;3179;54.350;10.102;2024-01-25T05:55:11;17.40;;;4.30;;
6292;SDS011;3179;54.350;10.102;2024-01-25T05:57:39;27.50;;;5.20;;
6292;SDS011;3179;54.350;10.102;2024-01-25T06:00:09;17.30;;;4.07;;
6292;SDS011;3179;54.350;10.102;2024-01-25T06:02:38;23.83;;;4.60;;
6292;SDS011;3179;54.350;10.102;2024-01-25T06:05:05;10.27;;;3.40;;
6292;SDS011;3179;54.350;10.102;2024-01-25T06:07:34;24.27;;;4.80;;
6292;SDS011;3179;54.350;10.102;2024-01-25T06:10:01;20.07;;;4.00;;
6292;SDS011;3179;54.350;10.102;2024-01-25T06:12:28;21.13;;;4.33;;
6292;SDS011;3179;54.350;10.102;2024-01-25T06:14:55;19.57;;;4.20;;
6292;SDS011;3179;54.350;10.102;2024-01-25T06:17:22;17.23;;;4.33;;
6292;SDS011;3179;54.350;10.102;2024-01-25T06:19:49;20.60;;;4.10;;
6292;SDS011;3179;54.350;10.102;2024-01-25T06:22:16;16.77;;;4.13;;
6292;SDS011;3179;54.350;10.102;2024-01-25T06:24:44;15.70;;;3.97;;
6292;SDS011;3179;54.350;10.102;2024-01-25T06:27:11;20.00;;;4.93;;
6292;SDS011;3179;54.350;10.102;2024-01-25T06:29:38;24.40;;;4.60;;
6292;SDS011;3179;54.350;10.102;2024-01-25T06:32:05;14.83;;;3.47;;
6292;SDS011;3179;54.350;10.102;2024-01-25T06:34:32;18.80;;;4.23;;
6292;SDS011;3179;54.350;10.102;2024-01-25T06:37:00;23.17;;;4.33;;
6292;SDS011;3179;54.350;10.102;2024-01-25T06:39:26;16.47;;;4.00;;
6292;SDS011;3179;54.350;10.102;2024-01-25T06:41:55;19.30;;;5.20;;
6292;SDS011;3179;54.350;10.102;2024-01-25T06:44:22;22.67;;;5.47;;
6292;SDS011;3179;54.350;10.102;2024-01-25T06:46:48;21.77;;;4.20;;
6292;SDS011;3179;54.350;10.102;2024-01-25T06:49:15;14.37;;;4.23;;
6292;SDS011;3179;54.350;10.102;2024-01-25T06:51:42;14.50;;;3.73;;
6292;SDS011;3179;54.350;10.102;2024-01-25T06:54:09;21.60;;;4.07;;
6292;SDS011;3179;54.350;10.102;2024-01-25T06:56:36;15.47;;;3.30;;
6292;SDS011;3179;54.350;10.102;2024-01-25T06:59:04;19.20;;;4.10;;
6292;SDS011;3179;54.350;10.102;2024-01-25T07:01:31;22.50;;;4.70;;
6292;SDS011;3179;54.350;10.102;2024-01-25T07:03:58;16.83;;;4.57;;
6292;SDS011;3179;54.350;10.102;2024-01-25T07:06:24;14.23;;;3.70;;
6292;SDS011;3179;54.350;10.102;2024-01-25T07:08:52;18.40;;;4.60;;
6292;SDS011;3179;54.350;10.102;2024-01-25T07:11:19;21.83;;;5.00;;
6292;SDS011;3179;54.350;10.102;2024-01-25T07:13:46;22.10;;;4.10;;
6292;SDS011;3179;54.350;10.102;2024-01-25T07:16:14;17.47;;;4.10;;
6292;SDS011;3179;54.350;10.102;2024-01-25T07:18:41;19.50;;;5.17;;
6292;SDS011;3179;54.350;10.102;2024-01-25T07:21:08;28.43;;;4.80;;
6292;SDS011;3179;54.350;10.102;2024-01-25T07:23:35;24.70;;;4.80;;
6292;SDS011;3179;54.350;10.102;2024-01-25T07:26:02;18.50;;;3.97;;
6292;SDS011;3179;54.350;10.102;2024-01-25T07:28:28;23.47;;;5.00;;
6292;SDS011;3179;54.350;10.102;2024-01-25T07:30:55;24.60;;;4.40;;
6292;SDS011;3179;54.350;10.102;2024-01-25T07:33:23;21.23;;;4.47;;
6292;SDS011;3179;54.350;10.102;2024-01-25T07:35:51;12.97;;;3.10;;
6292;SDS011;3179;54.350;10.102;2024-01-25T07:38:17;18.57;;;4.13;;
6292;SDS011;3179;54.350;10.102;2024-01-25T07:40:44;14.10;;;4.00;;
6292;SDS011;3179;54.350;10.102;2024-01-25T07:43:11;15.40;;;4.00;;
6292;SDS011;3179;54.350;10.102;2024-01-25T07:45:38;17.67;;;3.97;;
6292;SDS011;3179;54.350;10.102;2024-01-25T07:48:05;17.97;;;3.80;;
6292;SDS011;3179;54.350;10.102;2024-01-25T07:50:34;26.13;;;4.50;;
6292;SDS011;3179;54.350;10.102;2024-01-25T07:53:00;18.03;;;4.33;;
6292;SDS011;3179;54.350;10.102;2024-01-25T07:55:28;16.60;;;3.80;;
6292;SDS011;3179;54.350;10.102;2024-01-25T07:57:55;18.03;;;4.00;;
6292;SDS011;3179;54.350;10.102;2024-01-25T08:00:22;22.53;;;4.23;;
6292;SDS011;3179;54.350;10.102;2024-01-25T08:02:49;21.37;;;4.53;;
6292;SDS011;3179;54.350;10.102;2024-01-25T08:05:16;16.97;;;4.53;;
6292;SDS011;3179;54.350;10.102;2024-01-25T08:07:45;16.80;;;3.63;;
6292;SDS011;3179;54.350;10.102;2024-01-25T08:10:13;16.87;;;3.93;;
6292;SDS011;3179;54.350;10.102;2024-01-25T08:12:40;21.03;;;4.17;;
6292;SDS011;3179;54.350;10.102;2024-01-25T08:15:09;15.53;;;3.60;;
6292;SDS011;3179;54.350;10.102;2024-01-25T08:17:36;14.60;;;2.90;;
6292;SDS011;3179;54.350;10.102;2024-01-25T08:20:03;22.73;;;4.30;;
6292;SDS011;3179;54.350;10.102;2024-01-25T08:22:31;14.67;;;4.20;;
6292;SDS011;3179;54.350;10.102;2024-01-25T08:25:00;20.40;;;3.57;;
6292;SDS011;3179;54.350;10.102;2024-01-25T08:27:27;11.73;;;2.87;;
6292;SDS011;3179;54.350;10.102;2024-01-25T08:29:54;15.90;;;3.60;;
6292;SDS011;3179;54.350;10.102;2024-01-25T08:32:20;17.90;;;3.60;;
6292;SDS011;3179;54.350;10.102;2024-01-25T08:34:47;12.57;;;3.17;;
6292;SDS011;3179;54.350;10.102;2024-01-25T08:37:14;21.23;;;4.17;;
6292;SDS011;3179;54.350;10.102;2024-01-25T08:39:41;20.27;;;4.17;;
6292;SDS011;3179;54.350;10.102;2024-01-25T08:42:09;10.60;;;3.00;;
6292;SDS011;3179;54.350;10.102;2024-01-25T08:44:37;27.20;;;4.30;;
6292;SDS011;3179;54.350;10.102;2024-01-25T08:47:05;14.60;;;4.03;;
6292;SDS011;3179;54.350;10.102;2024-01-25T08:49:32;27.47;;;5.37;;
6292;SDS011;3179;54.350;10.102;2024-01-25T08:52:04;14.83;;;4.13;;
6292;SDS011;3179;54.350;10.102;2024-01-25T08:54:31;17.80;;;4.77;;
6292;SDS011;3179;54.350;10.102;2024-01-25T08:56:59;21.67;;;3.43;;
6292;SDS011;3179;54.350;10.102;2024-01-25T08:59:27;17.50;;;3.40;;
6292;SDS011;3179;54.350;10.102;2024-01-25T09:01:56;20.43;;;4.27;;
6292;SDS011;3179;54.350;10.102;2024-01-25T09:04:23;20.70;;;4.20;;
6292;SDS011;3179;54.350;10.102;2024-01-25T09:06:49;16.93;;;4.33;;
6292;SDS011;3179;54.350;10.102;2024-01-25T09:09:17;13.27;;;3.90;;
6292;SDS011;3179;54.350;10.102;2024-01-25T09:11:44;18.27;;;3.77;;
6292;SDS011;3179;54.350;10.102;2024-01-25T09:14:11;14.80;;;3.73;;
6292;SDS011;3179;54.350;10.102;2024-01-25T09:16:39;21.87;;;3.90;;
6292;SDS011;3179;54.350;10.102;2024-01-25T09:19:06;18.93;;;4.30;;
6292;SDS011;3179;54.350;10.102;2024-01-25T09:21:33;23.37;;;4.03;;
6292;SDS011;3179;54.350;10.102;2024-01-25T09:24:00;19.43;;;4.53;;
6292;SDS011;3179;54.350;10.102;2024-01-25T09:26:27;19.57;;;3.70;;
6292;SDS011;3179;54.350;10.102;2024-01-25T09:28:53;18.77;;;4.30;;
6292;SDS011;3179;54.350;10.102;2024-01-25T09:31:20;24.67;;;4.60;;
6292;SDS011;3179;54.350;10.102;2024-01-25T09:33:48;17.23;;;4.40;;
6292;SDS011;3179;54.350;10.102;2024-01-25T09:36:16;20.07;;;3.60;;
6292;SDS011;3179;54.350;10.102;2024-01-25T09:38:43;15.47;;;3.13;;
6292;SDS011;3179;54.350;10.102;2024-01-25T09:41:09;22.47;;;4.10;;
6292;SDS011;3179;54.350;10.102;2024-01-25T09:43:36;29.80;;;4.30;;
6292;SDS011;3179;54.350;10.102;2024-01-25T09:46:03;19.80;;;4.10;;
6292;SDS011;3179;54.350;10.102;2024-01-25T09:48:33;26.63;;;4.47;;
6292;SDS011;3179;54.350;10.102;2024-01-25T09:51:01;14.67;;;4.47;;
6292;SDS011;3179;54.350;10.102;2024-01-25T09:53:28;13.87;;;3.30;;
6292;SDS011;3179;54.350;10.102;2024-01-25T09:56:00;16.57;;;3.27;;
6292;SDS011;3179;54.350;10.102;2024-01-25T09:58:33;23.00;;;4.00;;
6292;SDS011;3179;54.350;10.102;2024-01-25T10:01:05;18.83;;;3.87;;
6292;SDS011;3179;54.350;10.102;2024-01-25T10:03:35;16.90;;;3.97;;
6292;SDS011;3179;54.350;10.102;2024-01-25T10:06:03;16.30;;;4.07;;
6292;SDS011;3179;54.350;10.102;2024-01-25T10:08:31;17.97;;;3.70;;
6292;SDS011;3179;54.350;10.102;2024-01-25T10:10:58;34.57;;;5.50;;
6292;SDS011;3179;54.350;10.102;2024-01-25T10:13:25;19.70;;;3.60;;
6292;SDS011;3179;54.350;10.102;2024-01-25T10:15:53;13.03;;;3.50;;
6292;SDS011;3179;54.350;10.102;2024-01-25T10:18:21;15.63;;;3.50;;
6292;SDS011;3179;54.350;10.102;2024-01-25T10:20:48;11.27;;;3.40;;
6292;SDS011;3179;54.350;10.102;2024-01-25T10:23:17;13.87;;;3.13;;
6292;SDS011;3179;54.350;10.102;2024-01-25T10:25:43;15.40;;;3.70;;
6292;SDS011;3179;54.350;10.102;2024-01-25T10:28:10;10.37;;;2.80;;
6292;SDS011;3179;54.350;10.102;2024-01-25T10:30:38;12.40;;;3.73;;
6292;SDS011;3179;54.350;10.102;2024-01-25T10:33:05;14.47;;;3.37;;
6292;SDS011;3179;54.350;10.102;2024-01-25T10:35:35;13.67;;;3.27;;
6292;SDS011;3179;54.350;10.102;2024-01-25T10:38:03;14.43;;;3.40;;
6292;SDS011;3179;54.350;10.102;2024-01-25T10:40:33;15.33;;;4.37;;
6292;SDS011;3179;54.350;10.102;2024-01-25T10:42:59;16.60;;;3.97;;
6292;SDS011;3179;54.350;10.102;2024-01-25T10:45:26;21.93;;;3.90;;
6292;SDS011;3179;54.350;10.102;2024-01-25T10:47:53;15.37;;;3.00;;
6292;SDS011;3179;54.350;10.102;2024-01-25T10:50:20;18.37;;;4.20;;
6292;SDS011;3179;54.350;10.102;2024-01-25T10:52:49;17.10;;;3.77;;
6292;SDS011;3179;54.350;10.102;2024-01-25T10:55:17;13.90;;;3.67;;
6292;SDS011;3179;54.350;10.102;2024-01-25T10:57:45;19.03;;;3.80;;
6292;SDS011;3179;54.350;10.102;2024-01-25T11:00:13;9.43;;;2.93;;
6292;SDS011;3179;54.350;10.102;2024-01-25T11:02:41;12.37;;;3.30;;
6292;SDS011;3179;54.350;10.102;2024-01-25T11:05:10;16.83;;;3.67;;
6292;SDS011;3179;54.350;10.102;2024-01-25T11:07:41;21.10;;;3.20;;
6292;SDS011;3179;54.350;10.102;2024-01-25T11:10:11;13.07;;;3.73;;
6292;SDS011;3179;54.350;10.102;2024-01-25T11:12:48;15.93;;;4.60;;
6292;SDS011;3179;54.350;10.102;2024-01-25T11:15:17;24.07;;;4.00;;
6292;SDS011;3179;54.350;10.102;2024-01-25T11:17:51;18.57;;;3.00;;
6292;SDS011;3179;54.350;10.102;2024-01-25T11:20:22;18.10;;;3.60;;
6292;SDS011;3179;54.350;10.102;2024-01-25T11:22:54;18.03;;;4.47;;
6292;SDS011;3179;54.350;10.102;2024-01-25T11:25:23;17.00;;;3.13;;
6292;SDS011;3179;54.350;10.102;2024-01-25T11:27:54;15.00;;;3.83;;
6292;SDS011;3179;54.350;10.102;2024-01-25T11:30:21;12.17;;;2.60;;
6292;SDS011;3179;54.350;10.102;2024-01-25T11:32:48;17.57;;;3.77;;
6292;SDS011;3179;54.350;10.102;2024-01-25T11:35:15;12.33;;;3.30;;
6292;SDS011;3179;54.350;10.102;2024-01-25T11:37:43;15.40;;;3.93;;
6292;SDS011;3179;54.350;10.102;2024-01-25T11:40:10;17.80;;;3.87;;
6292;SDS011;3179;54.350;10.102;2024-01-25T11:42:38;16.67;;;2.80;;
6292;SDS011;3179;54.350;10.102;2024-01-25T11:45:07;17.70;;;3.87;;
6292;SDS011;3179;54.350;10.102;2024-01-25T11:47:36;20.90;;;3.67;;
6292;SDS011;3179;54.350;10.102;2024-01-25T11:50:03;10.20;;;3.63;;
6292;SDS011;3179;54.350;10.102;2024-01-25T11:52:32;15.73;;;3.83;;
6292;SDS011;3179;54.350;10.102;2024-01-25T11:54:59;22.10;;;4.10;;
6292;SDS011;3179;54.350;10.102;2024-01-25T11:57:25;11.67;;;2.97;;
6292;SDS011;3179;54.350;10.102;2024-01-25T11:59:53;12.83;;;3.10;;
6292;SDS011;3179;54.350;10.102;2024-01-25T12:02:23;12.80;;;3.60;;
6292;SDS011;3179;54.350;10.102;2024-01-25T12:04:50;15.27;;;3.83;;
6292;SDS011;3179;54.350;10.102;2024-01-25T12:07:19;14.83;;;3.43;;
6292;SDS011;3179;54.350;10.102;2024-01-25T12:09:56;14.90;;;3.00;;
6292;SDS011;3179;54.350;10.102;2024-01-25T12:12:23;14.07;;;3.23;;
6292;SDS011;3179;54.350;10.102;2024-01-25T12:14:50;21.43;;;3.67;;
6292;SDS011;3179;54.350;10.102;2024-01-25T12:17:18;19.00;;;3.47;;
6292;SDS011;3179;54.350;10.102;2024-01-25T12:19:46;14.23;;;3.27;;
6292;SDS011;3179;54.350;10.102;2024-01-25T12:22:19;17.83;;;3.80;;
6292;SDS011;3179;54.350;10.102;2024-01-25T12:24:46;10.17;;;3.10;;
6292;SDS011;3179;54.350;10.102;2024-01-25T12:27:14;16.07;;;3.50;;
6292;SDS011;3179;54.350;10.102;2024-01-25T12:29:41;11.67;;;3.73;;
6292;SDS011;3179;54.350;10.102;2024-01-25T12:32:09;17.17;;;3.93;;
6292;SDS011;3179;54.350;10.102;2024-01-25T12:34:36;17.80;;;3.97;;
6292;SDS011;3179;54.350;10.102;2024-01-25T12:37:05;11.47;;;2.83;;
6292;SDS011;3179;54.350;10.102;2024-01-25T12:39:32;11.53;;;2.83;;
6292;SDS011;3179;54.350;10.102;2024-01-25T12:41:59;12.00;;;2.63;;
6292;SDS011;3179;54.350;10.102;2024-01-25T12:44:26;12.00;;;3.43;;
6292;SDS011;3179;54.350;10.102;2024-01-25T12:46:53;19.10;;;3.80;;
6292;SDS011;3179;54.350;10.102;2024-01-25T12:49:20;11.83;;;2.70;;
6292;SDS011;3179;54.350;10.102;2024-01-25T12:51:48;18.20;;;3.60;;
6292;SDS011;3179;54.350;10.102;2024-01-25T12:54:16;20.60;;;3.87;;
6292;SDS011;3179;54.350;10.102;2024-01-25T12:56:43;17.40;;;3.67;;
6292;SDS011;3179;54.350;10.102;2024-01-25T12:59:10;8.00;;;2.60;;
6292;SDS011;3179;54.350;10.102;2024-01-25T13:01:37;10.20;;;2.53;;
6292;SDS011;3179;54.350;10.102;2024-01-25T13:04:04;14.83;;;3.40;;
6292;SDS011;3179;54.350;10.102;2024-01-25T13:06:31;17.10;;;3.30;;
6292;SDS011;3179;54.350;10.102;2024-01-25T13:08:57;10.90;;;3.00;;
6292;SDS011;3179;54.350;10.102;2024-01-25T13:11:26;11.13;;;2.77;;
6292;SDS011;3179;54.350;10.102;2024-01-25T13:13:52;15.47;;;4.03;;
6292;SDS011;3179;54.350;10.102;2024-01-25T13:16:19;16.50;;;3.60;;
6292;SDS011;3179;54.350;10.102;2024-01-25T13:18:46;21.17;;;4.40;;
6292;SDS011;3179;54.350;10.102;2024-01-25T13:21:13;13.07;;;3.30;;
6292;SDS011;3179;54.350;10.102;2024-01-25T13:23:40;10.60;;;3.10;;
6292;SDS011;3179;54.350;10.102;2024-01-25T13:26:07;15.53;;;2.97;;
6292;SDS011;3179;54.350;10.102;2024-01-25T13:28:35;21.10;;;3.17;;
6292;SDS011;3179;54.350;10.102;2024-01-25T13:31:02;19.27;;;2.97;;
6292;SDS011;3179;54.350;10.102;2024-01-25T13:33:29;17.20;;;4.00;;
6292;SDS011;3179;54.350;10.102;2024-01-25T13:35:56;12.70;;;3.53;;
6292;SDS011;3179;54.350;10.102;2024-01-25T13:38:22;18.67;;;3.80;;
6292;SDS011;3179;54.350;10.102;2024-01-25T13:40:50;16.57;;;3.60;;
6292;SDS011;3179;54.350;10.102;2024-01-25T13:43:16;14.10;;;3.23;;
6292;SDS011;3179;54.350;10.102;2024-01-25T13:45:45;12.10;;;2.87;;
6292;SDS011;3179;54.350;10.102;2024-01-25T13:48:15;23.83;;;3.67;;
6292;SDS011;3179;54.350;10.102;2024-01-25T13:50:44;14.03;;;3.97;;
6292;SDS011;3179;54.350;10.102;2024-01-25T13:53:10;13.87;;;3.33;;
6292;SDS011;3179;54.350;10.102;2024-01-25T13:55:37;18.10;;;3.97;;
6292;SDS011;3179;54.350;10.102;2024-01-25T13:58:04;14.47;;;4.57;;
6292;SDS011;3179;54.350;10.102;2024-01-25T14:00:31;16.70;;;3.67;;
6292;SDS011;3179;54.350;10.102;2024-01-25T14:02:59;18.80;;;3.30;;
6292;SDS011;3179;54.350;10.102;2024-01-25T14:05:26;15.23;;;4.00;;
6292;SDS011;3179;54.350;10.102;2024-01-25T14:07:53;14.53;;;4.10;;
6292;SDS011;3179;54.350;10.102;2024-01-25T14:10:20;19.00;;;3.47;;
6292;SDS011;3179;54.350;10.102;2024-01-25T14:12:47;16.73;;;3.87;;
6292;SDS011;3179;54.350;10.102;2024-01-25T14:15:14;26.57;;;4.07;;
6292;SDS011;3179;54.350;10.102;2024-01-25T14:17:41;17.57;;;3.83;;
6292;SDS011;3179;54.350;10.102;2024-01-25T14:20:12;13.43;;;3.43;;
6292;SDS011;3179;54.350;10.102;2024-01-25T14:22:39;20.87;;;4.20;;
6292;SDS011;3179;54.350;10.102;2024-01-25T14:25:06;12.63;;;3.43;;
6292;SDS011;3179;54.350;10.102;2024-01-25T14:27:33;14.63;;;3.77;;
6292;SDS011;3179;54.350;10.102;2024-01-25T14:30:00;24.50;;;4.50;;
6292;SDS011;3179;54.350;10.102;2024-01-25T14:32:28;16.13;;;3.30;;
6292;SDS011;3179;54.350;10.102;2024-01-25T14:34:55;14.20;;;3.63;;
6292;SDS011;3179;54.350;10.102;2024-01-25T14:37:24;16.57;;;3.47;;
6292;SDS011;3179;54.350;10.102;2024-01-25T14:39:51;14.57;;;3.30;;
6292;SDS011;3179;54.350;10.102;2024-01-25T14:42:19;17.23;;;4.10;;
6292;SDS011;3179;54.350;10.102;2024-01-25T14:44:45;16.07;;;3.70;;
6292;SDS011;3179;54.350;10.102;2024-01-25T14:47:12;15.80;;;3.60;;
6292;SDS011;3179;54.350;10.102;2024-01-25T14:49:45;16.40;;;3.40;;